createdAt,value
2017-12-05T00:01:46.846Z,18.20
2017-12-05T00:04:15.238Z,17.67
2017-12-05T00:06:43.726Z,16.50
2017-12-05T00:09:12.189Z,16.07
2017-12-05T00:11:40.640Z,18.00
2017-12-05T00:14:09.080Z,17.03
2017-12-05T00:16:37.510Z,17.43
2017-12-05T00:19:06.011Z,21.03
2017-12-05T00:21:34.451Z,18.73
2017-12-05T00:24:02.924Z,18.90
2017-12-05T00:26:31.449Z,18.87
2017-12-05T00:28:59.893Z,17.70
2017-12-05T00:31:28.359Z,18.67
2017-12-05T00:33:56.907Z,19.00
2017-12-05T00:36:25.343Z,16.50
2017-12-05T00:38:53.746Z,17.90
2017-12-05T00:41:22.184Z,16.13
2017-12-05T00:43:50.610Z,16.33
2017-12-05T00:46:19.033Z,16.50
2017-12-05T00:48:47.402Z,16.30
2017-12-05T00:51:15.814Z,16.10
2017-12-05T00:53:44.257Z,15.77
2017-12-05T00:56:12.648Z,13.63
2017-12-05T00:58:41.247Z,14.90
2017-12-05T01:01:10.027Z,15.07
2017-12-05T01:03:38.582Z,16.07
2017-12-05T01:06:06.989Z,16.10
2017-12-05T01:08:35.431Z,14.80
2017-12-05T01:11:03.781Z,16.20
2017-12-05T01:13:32.218Z,15.10
2017-12-05T01:16:00.604Z,16.23
2017-12-05T01:18:28.994Z,16.80
2017-12-05T01:21:09.276Z,19.47
2017-12-05T01:23:37.638Z,17.17
2017-12-05T01:26:05.998Z,17.10
2017-12-05T01:28:35.196Z,17.80
2017-12-05T01:31:03.583Z,17.80
2017-12-05T01:33:32.023Z,17.07
2017-12-05T01:36:00.385Z,16.37
2017-12-05T01:38:28.725Z,16.43
2017-12-05T01:40:57.181Z,17.57
2017-12-05T01:43:25.586Z,17.67
2017-12-05T01:45:53.918Z,16.50
2017-12-05T01:48:22.349Z,16.50
2017-12-05T01:50:50.678Z,16.73
2017-12-05T01:53:19.047Z,15.77
2017-12-05T01:55:47.409Z,17.57
2017-12-05T01:58:15.779Z,18.50
2017-12-05T02:00:44.154Z,17.27
2017-12-05T02:03:12.576Z,17.80
2017-12-05T02:05:41.067Z,17.37
2017-12-05T02:08:09.404Z,19.20
2017-12-05T02:10:37.847Z,17.40
2017-12-05T02:13:06.208Z,19.47
2017-12-05T02:15:34.579Z,15.87
2017-12-05T02:18:03.181Z,18.93
2017-12-05T02:20:32.450Z,18.43
2017-12-05T02:23:00.791Z,19.87
2017-12-05T02:25:29.186Z,19.20
2017-12-05T02:27:57.543Z,17.23
2017-12-05T02:30:25.934Z,16.67
2017-12-05T02:32:54.349Z,16.77
2017-12-05T02:35:22.661Z,19.23
2017-12-05T02:37:51.094Z,16.23
2017-12-05T02:40:19.489Z,18.47
2017-12-05T02:42:48.158Z,18.80
2017-12-05T02:45:16.485Z,19.00
2017-12-05T02:47:44.833Z,17.40
2017-12-05T02:50:13.289Z,17.23
2017-12-05T02:52:41.741Z,17.40
2017-12-05T02:55:10.163Z,19.10
2017-12-05T02:57:38.505Z,18.93
2017-12-05T03:00:06.931Z,17.67
2017-12-05T03:02:35.792Z,18.27
2017-12-05T03:05:04.199Z,17.67
2017-12-05T03:07:32.578Z,18.10
2017-12-05T03:10:00.935Z,17.30
2017-12-05T03:12:29.277Z,18.87
2017-12-05T03:14:57.612Z,18.87
2017-12-05T03:17:26.035Z,18.23
2017-12-05T03:19:54.398Z,16.80
2017-12-05T03:22:22.777Z,17.97
2017-12-05T03:24:51.203Z,16.27
2017-12-05T03:27:19.608Z,15.80
2017-12-05T03:29:48.070Z,16.77
2017-12-05T03:32:16.516Z,16.60
2017-12-05T03:34:44.930Z,15.97
2017-12-05T03:37:13.388Z,16.97
2017-12-05T03:39:41.769Z,17.13
2017-12-05T03:42:10.153Z,17.13
2017-12-05T03:44:38.626Z,18.50
2017-12-05T03:47:07.108Z,15.90
2017-12-05T03:49:35.633Z,18.43
2017-12-05T03:52:03.957Z,16.20
2017-12-05T03:54:32.308Z,17.00
2017-12-05T03:57:00.697Z,14.70
2017-12-05T03:59:29.155Z,15.67
2017-12-05T04:01:57.611Z,15.73
2017-12-05T04:04:25.973Z,15.57
2017-12-05T04:06:54.331Z,15.07
2017-12-05T04:09:22.729Z,14.80
2017-12-05T04:11:51.194Z,14.50
2017-12-05T04:14:19.679Z,13.87
2017-12-05T04:16:48.075Z,14.70
2017-12-05T04:19:17.001Z,16.00
2017-12-05T04:21:45.374Z,15.27
2017-12-05T04:24:13.712Z,15.90
2017-12-05T04:26:42.090Z,16.17
2017-12-05T04:29:10.538Z,15.10
2017-12-05T04:31:38.934Z,16.40
2017-12-05T04:34:07.310Z,14.83
2017-12-05T04:36:35.751Z,17.43
2017-12-05T04:39:04.747Z,15.23
2017-12-05T04:41:33.141Z,14.77
2017-12-05T04:44:01.545Z,15.53
2017-12-05T04:46:30.002Z,15.30
2017-12-05T04:48:58.401Z,16.50
2017-12-05T04:51:26.819Z,15.60
2017-12-05T04:53:55.215Z,15.03
2017-12-05T04:56:23.619Z,12.20
2017-12-05T04:58:52.026Z,14.23
2017-12-05T05:01:20.471Z,15.40
2017-12-05T05:03:49.199Z,15.30
2017-12-05T05:06:17.556Z,13.73
2017-12-05T05:08:46.263Z,13.90
2017-12-05T05:11:14.773Z,13.63
2017-12-05T05:13:43.208Z,13.33
2017-12-05T05:16:11.619Z,13.50
2017-12-05T05:18:40.082Z,13.57
2017-12-05T05:21:08.513Z,14.60
2017-12-05T05:23:37.566Z,14.07
2017-12-05T05:26:05.976Z,13.90
2017-12-05T05:28:34.454Z,13.53
2017-12-05T05:31:02.837Z,14.37
2017-12-05T05:33:31.366Z,15.20
2017-12-05T05:35:59.766Z,12.93
2017-12-05T05:38:28.216Z,12.97
2017-12-05T05:40:56.643Z,14.17
2017-12-05T05:43:26.953Z,14.70
2017-12-05T05:45:57.496Z,16.50
2017-12-05T05:48:25.945Z,12.10
2017-12-05T05:53:43.972Z,13.43
2017-12-05T05:56:12.866Z,13.73
2017-12-05T05:58:43.640Z,12.00
2017-12-05T06:01:16.955Z,12.50
2017-12-05T06:03:47.600Z,12.20
2017-12-05T06:06:17.128Z,11.70
2017-12-05T06:08:45.723Z,12.33
2017-12-05T06:11:14.106Z,12.80
2017-12-05T06:13:42.546Z,11.50
2017-12-05T06:16:11.129Z,12.40
2017-12-05T06:23:46.699Z,11.33
2017-12-05T06:26:15.533Z,10.60
2017-12-05T06:28:44.343Z,11.20
2017-12-05T06:31:14.745Z,10.90
2017-12-05T06:36:16.486Z,11.50
2017-12-05T06:41:18.158Z,12.73
2017-12-05T06:43:47.251Z,12.37
2017-12-05T06:51:22.574Z,12.03
2017-12-05T06:53:51.615Z,11.63
2017-12-05T07:09:06.655Z,12.30
2017-12-05T07:21:52.936Z,11.70
2017-12-05T07:30:07.420Z,11.80
2017-12-05T13:28:58.636Z,9.77
2017-12-05T13:31:31.612Z,9.37
2017-12-05T14:33:51.411Z,9.00
2017-12-05T14:45:10.321Z,10.03
2017-12-05T15:42:57.012Z,9.53
2017-12-05T18:05:15.747Z,12.70
2017-12-05T18:07:44.693Z,11.43
2017-12-05T18:16:25.455Z,11.33
2017-12-05T18:18:55.990Z,11.83
2017-12-05T18:24:31.874Z,13.20
2017-12-05T18:27:25.121Z,11.03
2017-12-05T18:47:34.521Z,13.23
2017-12-05T18:50:10.307Z,12.07
2017-12-05T18:55:13.539Z,12.80
2017-12-05T19:15:59.608Z,13.10
2017-12-05T19:18:28.628Z,15.00
2017-12-05T19:23:37.193Z,13.80
2017-12-05T19:26:09.590Z,14.13
2017-12-05T19:33:44.931Z,15.10
2017-12-05T19:36:13.575Z,14.97
2017-12-05T19:38:42.581Z,14.27
2017-12-05T19:48:53.653Z,13.87
2017-12-05T20:01:39.599Z,15.50
2017-12-05T20:14:20.929Z,14.40
2017-12-05T20:16:53.060Z,14.83
2017-12-05T20:19:21.728Z,15.83
2017-12-05T20:21:50.358Z,14.70
2017-12-05T20:24:18.783Z,14.53
2017-12-05T20:26:48.109Z,14.13
2017-12-05T20:29:19.431Z,14.70
2017-12-05T20:31:48.025Z,15.07
2017-12-05T20:34:16.465Z,15.33
2017-12-05T20:39:17.272Z,15.60
2017-12-05T20:41:45.957Z,16.13
2017-12-05T20:54:30.213Z,14.47
2017-12-05T21:02:04.964Z,16.07
2017-12-05T21:04:34.151Z,17.03
2017-12-05T21:07:02.663Z,15.07
2017-12-05T21:09:33.014Z,15.50
2017-12-05T21:14:33.928Z,17.30
2017-12-05T21:17:02.351Z,17.23
2017-12-05T21:19:34.337Z,17.43
2017-12-05T21:24:35.432Z,15.67
2017-12-05T21:27:07.496Z,15.90
2017-12-05T21:29:35.983Z,15.00
2017-12-05T21:32:06.124Z,16.37
2017-12-05T21:34:35.055Z,16.80
2017-12-05T21:37:03.700Z,14.70
2017-12-05T21:39:32.394Z,15.83
2017-12-05T21:42:01.746Z,16.30
2017-12-05T21:44:30.194Z,16.10
2017-12-05T21:46:58.574Z,16.40
2017-12-05T21:49:26.989Z,16.57
2017-12-05T21:51:55.494Z,19.67
2017-12-05T21:54:23.910Z,18.30
2017-12-05T21:56:52.295Z,15.60
2017-12-05T21:59:21.008Z,15.23
2017-12-05T22:01:49.341Z,16.37
2017-12-05T22:04:17.821Z,15.90
2017-12-05T22:06:46.282Z,15.43
2017-12-05T22:09:14.758Z,16.23
2017-12-05T22:11:43.314Z,15.60
2017-12-05T22:14:11.792Z,17.63
2017-12-05T22:16:40.220Z,14.77
2017-12-05T22:19:10.428Z,14.87
2017-12-05T22:21:39.483Z,16.60
2017-12-05T22:24:08.031Z,16.43
2017-12-05T22:26:36.457Z,16.30
2017-12-05T22:29:04.825Z,14.50
2017-12-05T22:31:33.238Z,16.60
2017-12-05T22:34:01.968Z,15.63
2017-12-05T22:36:30.354Z,15.20
2017-12-05T22:38:59.152Z,14.87
2017-12-05T22:41:27.518Z,15.43
2017-12-05T22:43:55.853Z,15.30
2017-12-05T22:46:24.495Z,16.50
2017-12-05T22:48:52.890Z,14.97
2017-12-05T22:51:21.248Z,14.30
2017-12-05T22:53:49.578Z,17.40
2017-12-05T22:56:17.938Z,14.83
2017-12-05T22:58:46.948Z,16.13
2017-12-05T23:01:15.392Z,15.20
2017-12-05T23:03:43.873Z,15.30
2017-12-05T23:06:12.193Z,14.63
2017-12-05T23:08:40.558Z,14.20
2017-12-05T23:11:09.163Z,13.63
2017-12-05T23:13:37.685Z,15.80
2017-12-05T23:16:06.038Z,15.90
2017-12-05T23:18:34.459Z,15.97
2017-12-05T23:21:03.291Z,15.70
2017-12-05T23:23:31.975Z,15.97
2017-12-05T23:26:06.832Z,16.17
2017-12-05T23:28:35.376Z,15.40
2017-12-05T23:31:03.794Z,14.17
2017-12-05T23:33:32.128Z,15.73
2017-12-05T23:36:00.565Z,13.53
2017-12-05T23:38:28.981Z,15.73
2017-12-05T23:40:57.367Z,15.40
2017-12-05T23:43:26.075Z,15.27
2017-12-05T23:45:54.421Z,14.47
2017-12-05T23:48:22.956Z,17.73
2017-12-05T23:50:51.340Z,14.90
2017-12-05T23:53:19.798Z,13.30
2017-12-05T23:55:48.175Z,13.80
2017-12-05T23:58:16.517Z,14.70
